createdAt,value
2023-05-13T00:00:01.002Z,978.8
2023-05-13T00:01:00.555Z,978.8
2023-05-13T00:02:00.560Z,978.8
2023-05-13T00:03:01.034Z,978.8
2023-05-13T00:04:01.828Z,978.8
2023-05-13T00:05:00.740Z,978.8
2023-05-13T00:06:00.669Z,978.8
2023-05-13T00:07:00.603Z,978.8
2023-05-13T00:08:00.605Z,978.6
2023-05-13T00:09:00.721Z,978.6
2023-05-13T00:10:00.763Z,978.8
2023-05-13T00:11:00.568Z,978.8
2023-05-13T00:12:00.586Z,978.8
2023-05-13T00:13:00.629Z,978.8
2023-05-13T00:14:00.572Z,978.8
2023-05-13T00:15:00.675Z,978.8
2023-05-13T00:16:00.595Z,978.8
2023-05-13T00:17:00.868Z,978.8
2023-05-13T00:18:00.684Z,979
2023-05-13T00:19:01.463Z,979
2023-05-13T00:20:00.817Z,979
2023-05-13T00:21:00.701Z,979
2023-05-13T00:22:00.965Z,978.8
2023-05-13T00:23:00.684Z,978.8
2023-05-13T00:24:00.717Z,979
2023-05-13T00:25:00.819Z,978.8
2023-05-13T00:26:00.715Z,978.8
2023-05-13T00:27:00.688Z,978.8
2023-05-13T00:28:00.681Z,978.8
2023-05-13T00:29:00.874Z,978.8
2023-05-13T00:30:00.890Z,978.8
2023-05-13T00:31:00.789Z,978.8
2023-05-13T00:32:00.747Z,978.8
2023-05-13T00:33:00.831Z,978.8
2023-05-13T00:34:00.687Z,978.8
2023-05-13T00:35:01.043Z,978.8
2023-05-13T00:36:00.805Z,978.8
2023-05-13T00:37:00.639Z,978.8
2023-05-13T00:38:00.686Z,978.8
2023-05-13T00:39:00.695Z,978.8
2023-05-13T00:40:00.662Z,978.8
2023-05-13T00:41:00.591Z,978.8
2023-05-13T00:42:00.579Z,978.8
2023-05-13T00:43:00.912Z,978.8
2023-05-13T00:44:00.577Z,978.8
2023-05-13T00:45:00.606Z,978.8
2023-05-13T00:46:00.660Z,978.8
2023-05-13T00:47:00.674Z,978.8
2023-05-13T00:48:00.690Z,978.8
2023-05-13T00:49:00.636Z,978.8
2023-05-13T00:50:00.877Z,978.8
2023-05-13T00:51:00.620Z,978.8
2023-05-13T00:52:00.587Z,978.8
2023-05-13T00:53:00.592Z,978.8
2023-05-13T00:54:00.581Z,978.8
2023-05-13T00:55:00.596Z,978.8
2023-05-13T00:56:00.601Z,979
2023-05-13T00:57:00.746Z,979
2023-05-13T00:58:00.618Z,979
2023-05-13T00:59:00.617Z,978.8
2023-05-13T01:00:01.067Z,978.8
2023-05-13T01:01:01.282Z,978.8
2023-05-13T01:02:00.600Z,978.8
2023-05-13T01:03:00.657Z,978.8
2023-05-13T01:04:00.609Z,978.8
2023-05-13T01:05:00.624Z,978.8
2023-05-13T01:06:00.622Z,978.8
2023-05-13T01:07:01.275Z,978.8
2023-05-13T01:08:00.545Z,978.8
2023-05-13T01:09:00.491Z,978.8
2023-05-13T01:10:00.474Z,978.8
2023-05-13T01:11:00.435Z,978.8
2023-05-13T01:12:00.491Z,978.8
2023-05-13T01:13:00.438Z,978.8
2023-05-13T01:14:00.351Z,978.8
2023-05-13T01:15:00.334Z,978.8
2023-05-13T01:16:00.414Z,979
2023-05-13T01:17:00.461Z,978.8
2023-05-13T01:18:00.414Z,979.3
2023-05-13T01:19:00.284Z,979
2023-05-13T01:20:00.285Z,979.3
2023-05-13T01:21:00.275Z,979
2023-05-13T01:22:00.231Z,979
2023-05-13T01:23:00.228Z,978.8
2023-05-13T01:24:00.257Z,979
2023-05-13T01:25:00.220Z,979.3
2023-05-13T01:26:00.222Z,979.3
2023-05-13T01:27:00.290Z,979.3
2023-05-13T01:28:00.236Z,979.3
2023-05-13T01:29:00.225Z,979.3
2023-05-13T01:30:00.223Z,979
2023-05-13T01:31:00.289Z,979.3
2023-05-13T01:32:00.264Z,979.3
2023-05-13T01:33:00.255Z,979
2023-05-13T01:34:00.281Z,979.3
2023-05-13T01:35:00.243Z,979.3
2023-05-13T01:36:00.257Z,979.3
2023-05-13T01:37:00.245Z,979.3
2023-05-13T01:38:00.241Z,979.3
2023-05-13T01:39:00.822Z,979.3
2023-05-13T01:40:00.236Z,979.3
2023-05-13T01:41:00.310Z,979.3
2023-05-13T01:42:00.274Z,979.3
2023-05-13T01:43:00.234Z,979.3
2023-05-13T01:44:00.275Z,979.3
2023-05-13T01:45:00.253Z,979.3
2023-05-13T01:46:00.344Z,979.3
2023-05-13T01:47:00.264Z,979.3
2023-05-13T01:48:00.366Z,979.3
2023-05-13T01:49:00.258Z,979.3
2023-05-13T01:50:00.335Z,979.5
2023-05-13T01:51:00.251Z,979.5
2023-05-13T01:52:00.254Z,979.5
2023-05-13T01:53:00.248Z,979.5
2023-05-13T01:54:00.249Z,979.3
2023-05-13T01:55:01.674Z,979.5
2023-05-13T01:56:00.257Z,979.5
2023-05-13T01:57:00.311Z,979.5
2023-05-13T01:58:00.278Z,979.3
2023-05-13T01:59:00.362Z,979.5
2023-05-13T02:00:00.257Z,979.3
2023-05-13T02:01:01.872Z,979.5
2023-05-13T02:02:01.873Z,979.5
2023-05-13T02:03:01.959Z,979.5
2023-05-13T02:04:01.867Z,979.5
2023-05-13T02:05:02.124Z,979.5
2023-05-13T02:06:01.823Z,979.5
2023-05-13T02:07:02.112Z,979.5
2023-05-13T02:08:01.824Z,979.7
2023-05-13T02:09:01.827Z,979.3
2023-05-13T02:10:02.182Z,979.3
2023-05-13T02:11:03.125Z,979.5
2023-05-13T02:12:01.892Z,979.5
2023-05-13T02:13:02.096Z,979.3
2023-05-13T02:14:01.937Z,979.3
2023-05-13T02:15:02.211Z,979.3
2023-05-13T02:16:01.878Z,979.3
2023-05-13T02:17:01.956Z,979.3
2023-05-13T02:18:01.956Z,979.3
2023-05-13T02:19:01.986Z,979.3
2023-05-13T02:20:02.277Z,979.3
2023-05-13T02:21:02.112Z,979.3
2023-05-13T02:22:02.083Z,979.3
2023-05-13T02:23:01.976Z,979.3
2023-05-13T02:24:01.889Z,979.3
2023-05-13T02:25:01.809Z,979.3
2023-05-13T02:26:01.805Z,979.3
2023-05-13T02:27:02.453Z,979.3
2023-05-13T02:28:01.882Z,979.3
2023-05-13T02:29:02.162Z,979.3
2023-05-13T02:30:02.268Z,979.3
2023-05-13T02:31:01.857Z,979.3
2023-05-13T02:32:01.955Z,979.3
2023-05-13T02:33:01.975Z,979.3
2023-05-13T02:34:01.848Z,979.3
2023-05-13T02:35:01.827Z,979.3
2023-05-13T02:36:02.122Z,979.5
2023-05-13T02:37:01.959Z,979.7
2023-05-13T02:38:01.903Z,979.7
2023-05-13T02:39:01.847Z,979.7
2023-05-13T02:40:02.113Z,979.7
2023-05-13T02:41:01.853Z,979.7
2023-05-13T02:42:01.809Z,979.7
2023-05-13T02:43:02.290Z,979.7
2023-05-13T02:44:01.878Z,979.7
2023-05-13T02:45:01.885Z,979.7
2023-05-13T02:46:01.839Z,979.7
2023-05-13T02:47:01.798Z,979.5
2023-05-13T02:48:01.921Z,979.3
2023-05-13T02:49:03.076Z,979.5
2023-05-13T02:50:02.066Z,979.5
2023-05-13T02:51:01.893Z,979.5
2023-05-13T02:52:01.898Z,979.3
2023-05-13T02:53:01.816Z,979.7
2023-05-13T02:54:01.935Z,979.7
2023-05-13T02:55:01.907Z,979.5
2023-05-13T02:56:01.815Z,979.5
2023-05-13T02:57:01.810Z,979.5
2023-05-13T02:58:01.809Z,979.5
2023-05-13T02:59:01.972Z,979.3
2023-05-13T03:00:01.862Z,979.3
2023-05-13T03:01:01.895Z,979.5
2023-05-13T03:02:01.922Z,979.7
2023-05-13T03:03:01.884Z,979.7
2023-05-13T03:04:01.840Z,979.7
2023-05-13T03:05:01.968Z,979.7
2023-05-13T03:06:01.812Z,979.7
2023-05-13T03:07:01.869Z,979.7
2023-05-13T03:08:01.822Z,979.7
2023-05-13T03:09:01.825Z,979.7
2023-05-13T03:10:01.844Z,979.7
2023-05-13T03:11:01.820Z,979.7
2023-05-13T03:12:01.823Z,979.5
2023-05-13T03:13:01.852Z,979.7
2023-05-13T03:14:01.834Z,979.7
2023-05-13T03:15:02.578Z,979.7
2023-05-13T03:16:01.880Z,979.7
2023-05-13T03:17:01.872Z,979.9
2023-05-13T03:18:01.878Z,979.9
2023-05-13T03:19:01.908Z,979.9
2023-05-13T03:20:01.882Z,979.9
2023-05-13T03:21:01.872Z,979.9
2023-05-13T03:22:01.854Z,980.1
2023-05-13T03:23:01.850Z,979.9
2023-05-13T03:24:01.840Z,980.1
2023-05-13T03:25:01.838Z,980.1
2023-05-13T03:26:01.859Z,979.9
2023-05-13T03:27:01.840Z,980.1
2023-05-13T03:28:01.857Z,980.1
2023-05-13T03:29:01.892Z,980.1
2023-05-13T03:30:01.966Z,980.1
2023-05-13T03:31:02.673Z,980.1
2023-05-13T03:32:02.141Z,980.1
2023-05-13T03:33:01.938Z,980.1
2023-05-13T03:34:01.849Z,980.1
2023-05-13T03:35:01.851Z,980.1
2023-05-13T03:36:01.934Z,980.1
2023-05-13T03:37:01.891Z,980.1
2023-05-13T03:38:01.862Z,980.1
2023-05-13T03:39:01.854Z,980.1
2023-05-13T03:40:02.126Z,979.9
2023-05-13T03:41:01.889Z,979.9
2023-05-13T03:42:01.851Z,979.7
2023-05-13T03:43:01.887Z,979.7
2023-05-13T03:44:01.859Z,979.9
2023-05-13T03:45:01.877Z,980.1
2023-05-13T03:46:01.869Z,980.1
2023-05-13T03:47:02.841Z,980.1
2023-05-13T03:48:01.968Z,980.1
2023-05-13T03:49:01.917Z,980.1
2023-05-13T03:50:01.904Z,980.1
2023-05-13T03:51:01.881Z,980.1
2023-05-13T03:52:01.869Z,980.1
2023-05-13T03:53:01.878Z,980.1
2023-05-13T03:54:01.895Z,979.7
2023-05-13T03:55:01.872Z,979.7
2023-05-13T03:56:01.888Z,979.7
2023-05-13T03:57:01.872Z,979.7
2023-05-13T03:58:01.890Z,979.9
2023-05-13T03:59:01.894Z,979.9
2023-05-13T04:00:01.896Z,979.9
2023-05-13T04:01:01.898Z,979.9
2023-05-13T04:02:01.909Z,980.1
2023-05-13T04:03:02.526Z,979.9
2023-05-13T04:04:02.038Z,980.1
2023-05-13T04:05:01.920Z,979.9
2023-05-13T04:06:01.887Z,979.9
2023-05-13T04:07:01.910Z,979.7
2023-05-13T04:08:01.910Z,979.9
2023-05-13T04:09:01.878Z,979.9
2023-05-13T04:10:02.110Z,980.1
2023-05-13T04:11:01.889Z,979.9
2023-05-13T04:12:01.911Z,979.7
2023-05-13T04:13:01.885Z,979.7
2023-05-13T04:14:01.910Z,979.7
2023-05-13T04:15:01.957Z,979.7
2023-05-13T04:16:01.890Z,979.5
2023-05-13T04:17:01.922Z,979.7
2023-05-13T04:18:01.969Z,979.7
2023-05-13T04:19:02.572Z,979.7
2023-05-13T04:20:01.963Z,979.7
2023-05-13T04:21:01.927Z,979.7
2023-05-13T04:22:01.912Z,979.7
2023-05-13T04:23:01.898Z,979.7
2023-05-13T04:24:01.905Z,979.7
2023-05-13T04:25:01.939Z,979.3
2023-05-13T04:26:01.922Z,979.3
2023-05-13T04:27:01.900Z,979.5
2023-05-13T04:28:01.909Z,979.5
2023-05-13T04:29:01.920Z,979.5
2023-05-13T04:30:01.965Z,979.5
2023-05-13T04:31:01.913Z,979.5
2023-05-13T04:32:01.972Z,979.3
2023-05-13T04:33:02.001Z,979.3
2023-05-13T04:34:01.950Z,979.5
2023-05-13T04:35:02.740Z,979.5
2023-05-13T04:36:01.920Z,979.3
2023-05-13T04:37:01.900Z,979.3
2023-05-13T04:38:01.920Z,979.3
2023-05-13T04:39:01.913Z,979.3
2023-05-13T04:40:01.923Z,979.3
2023-05-13T04:41:01.923Z,979
2023-05-13T04:42:01.916Z,979
2023-05-13T04:43:01.919Z,979
2023-05-13T04:44:01.946Z,979
2023-05-13T04:45:01.929Z,978.8
2023-05-13T04:46:01.966Z,979
2023-05-13T04:47:01.922Z,979
2023-05-13T04:48:02.067Z,979.3
2023-05-13T04:49:02.443Z,979
2023-05-13T04:50:01.986Z,979.3
2023-05-13T04:51:03.344Z,979
2023-05-13T04:52:01.934Z,978.8
2023-05-13T04:53:01.928Z,978.8
2023-05-13T04:54:01.948Z,978.8
2023-05-13T04:55:01.961Z,979
2023-05-13T04:56:01.978Z,979
2023-05-13T04:57:01.929Z,979
2023-05-13T04:58:01.987Z,979
2023-05-13T04:59:01.951Z,979
2023-05-13T05:00:01.969Z,979.3
2023-05-13T05:01:01.955Z,979.3
2023-05-13T05:02:02.002Z,979.3
2023-05-13T05:03:02.002Z,978.8
2023-05-13T05:04:02.011Z,978.8
2023-05-13T05:05:02.704Z,978.8
2023-05-13T05:06:01.945Z,978.8
2023-05-13T05:07:02.631Z,978.6
2023-05-13T05:08:01.943Z,978.8
2023-05-13T05:09:01.969Z,978.6
2023-05-13T05:10:02.012Z,978.8
2023-05-13T05:11:01.961Z,978.8
2023-05-13T05:12:01.937Z,978.8
2023-05-13T05:13:01.997Z,978.8
2023-05-13T05:14:01.960Z,978.8
2023-05-13T05:15:01.977Z,978.8
2023-05-13T05:16:01.980Z,978.8
2023-05-13T05:17:01.994Z,978.8
2023-05-13T05:18:02.061Z,978.8
2023-05-13T05:19:02.023Z,978.8
2023-05-13T05:20:02.415Z,978.8
2023-05-13T05:21:02.709Z,978.6
2023-05-13T05:22:01.958Z,978.6
2023-05-13T05:23:02.759Z,978.4
2023-05-13T05:24:01.961Z,978.4
2023-05-13T05:25:01.963Z,978.4
2023-05-13T05:26:10.954Z,978.4
2023-05-13T05:27:01.979Z,978.4
2023-05-13T05:28:01.960Z,978.4
2023-05-13T05:29:01.968Z,978.2
2023-05-13T05:30:02.034Z,978
2023-05-13T05:31:02.483Z,978
2023-05-13T05:32:02.020Z,978
2023-05-13T05:33:02.033Z,978
2023-05-13T05:34:02.004Z,977.7
2023-05-13T05:35:02.130Z,977.5
2023-05-13T05:36:01.973Z,977.3
2023-05-13T05:37:02.027Z,977.3
2023-05-13T05:38:02.169Z,977.3
2023-05-13T05:39:02.736Z,977.1
2023-05-13T05:40:02.314Z,977.1
2023-05-13T05:41:02.047Z,977.1
2023-05-13T05:42:02.112Z,976.9
2023-05-13T05:43:01.991Z,976.9
2023-05-13T05:44:02.066Z,977.1
2023-05-13T05:45:02.648Z,977.5
2023-05-13T05:46:02.048Z,977.3
2023-05-13T05:47:02.216Z,977.3
2023-05-13T05:48:02.089Z,977.3
2023-05-13T05:49:02.071Z,977.1
2023-05-13T05:50:02.490Z,977.1
2023-05-13T05:51:02.048Z,977.1
2023-05-13T05:52:02.218Z,977.1
2023-05-13T05:53:02.000Z,977.1
2023-05-13T05:54:02.010Z,976.9
2023-05-13T05:55:03.145Z,977.1
2023-05-13T05:56:02.210Z,977.1
2023-05-13T05:57:01.996Z,977.1
2023-05-13T05:58:01.993Z,976.7
2023-05-13T05:59:02.000Z,976.7
2023-05-13T06:00:02.039Z,976.9
2023-05-13T06:01:01.994Z,976.7
2023-05-13T06:02:02.060Z,976.7
2023-05-13T06:03:02.273Z,976.7
2023-05-13T06:04:02.111Z,976.9
2023-05-13T06:05:02.026Z,976.7
2023-05-13T06:06:02.001Z,976.7
2023-05-13T06:07:02.073Z,976.7
2023-05-13T06:08:02.052Z,976.7
2023-05-13T06:09:02.013Z,976.2
2023-05-13T06:10:02.059Z,975.1
2023-05-13T06:11:02.737Z,975.8
2023-05-13T06:12:02.019Z,976.2
2023-05-13T06:13:02.026Z,976.2
2023-05-13T06:14:02.023Z,975.8
2023-05-13T06:15:02.033Z,976
2023-05-13T06:16:02.089Z,975.8
2023-05-13T06:17:02.005Z,975.4
2023-05-13T06:18:02.077Z,975.4
2023-05-13T06:19:02.089Z,975.4
2023-05-13T06:20:02.046Z,975.4
2023-05-13T06:21:02.074Z,975.4
2023-05-13T06:22:04.025Z,974.9
2023-05-13T06:23:02.045Z,974.5
2023-05-13T06:24:02.074Z,974.5
2023-05-13T06:25:02.058Z,974.5
2023-05-13T06:26:02.022Z,974.9
2023-05-13T06:27:02.428Z,974.9
2023-05-13T06:28:03.163Z,974.9
2023-05-13T06:29:02.033Z,974.7
2023-05-13T06:30:02.033Z,974.5
2023-05-13T06:31:02.086Z,974.3
2023-05-13T06:32:02.083Z,974.5
2023-05-13T06:33:02.765Z,974.7
2023-05-13T06:34:02.041Z,974.9
2023-05-13T06:35:02.256Z,974.7
2023-05-13T06:36:02.060Z,974.9
2023-05-13T06:37:02.051Z,974.7
2023-05-13T06:38:02.043Z,975.1
2023-05-13T06:39:02.078Z,974.9
2023-05-13T06:40:02.067Z,974.5
2023-05-13T06:41:02.042Z,974.3
2023-05-13T06:42:02.041Z,974.5
2023-05-13T06:43:02.910Z,974.5
2023-05-13T06:44:02.043Z,974
2023-05-13T06:45:02.053Z,974.5
2023-05-13T06:46:02.167Z,974.5
2023-05-13T06:47:02.160Z,974.5
2023-05-13T06:48:02.096Z,974.5
2023-05-13T06:49:02.591Z,974.3
2023-05-13T06:50:02.056Z,974
2023-05-13T06:51:02.071Z,974
2023-05-13T06:52:02.052Z,974.3
2023-05-13T06:53:02.139Z,974
2023-05-13T06:54:02.074Z,973.8
2023-05-13T06:55:02.078Z,974
2023-05-13T06:56:02.059Z,974.3
2023-05-13T06:57:02.069Z,974.5
2023-05-13T06:58:02.060Z,974
2023-05-13T06:59:02.549Z,974
2023-05-13T07:00:02.188Z,973.6
2023-05-13T07:01:02.157Z,973.6
2023-05-13T07:02:02.066Z,973.6
2023-05-13T07:03:02.108Z,973.6
2023-05-13T07:04:02.177Z,973.4
2023-05-13T07:05:02.253Z,973.6
2023-05-13T07:06:02.087Z,973.2
2023-05-13T07:07:02.077Z,973.6
2023-05-13T07:08:00.732Z,973.2
2023-05-13T07:09:00.378Z,973.6
2023-05-13T07:10:00.703Z,973.6
2023-05-13T07:11:00.305Z,973.6
2023-05-13T07:12:00.360Z,973.2
2023-05-13T07:13:00.598Z,973.2
2023-05-13T07:14:00.299Z,973.6
2023-05-13T07:15:00.503Z,973.6
2023-05-13T07:16:00.388Z,973.6
2023-05-13T07:17:00.325Z,973.4
2023-05-13T07:18:00.324Z,973.2
2023-05-13T07:19:00.415Z,973.4
2023-05-13T07:20:00.328Z,973.6
2023-05-13T07:21:00.300Z,973
2023-05-13T07:22:00.576Z,973.2
2023-05-13T07:23:00.302Z,973.2
2023-05-13T07:24:00.289Z,973.4
2023-05-13T07:25:00.360Z,973.2
2023-05-13T07:26:00.411Z,973.4
2023-05-13T07:27:00.291Z,973.6
2023-05-13T07:28:00.366Z,973.4
2023-05-13T07:29:00.323Z,973.4
2023-05-13T07:30:00.297Z,973.2
2023-05-13T07:31:00.424Z,973.6
2023-05-13T07:32:00.317Z,973.2
2023-05-13T07:33:00.339Z,973.6
2023-05-13T07:34:00.347Z,973.6
2023-05-13T07:35:00.296Z,973.8
2023-05-13T07:36:00.397Z,973.8
2023-05-13T07:37:00.381Z,974
2023-05-13T07:38:00.363Z,974
2023-05-13T07:39:00.356Z,973.6
2023-05-13T07:40:00.561Z,973.6
2023-05-13T07:41:00.312Z,973.4
2023-05-13T07:42:00.323Z,973.4
2023-05-13T07:43:00.369Z,973.6
2023-05-13T07:44:00.312Z,973.6
2023-05-13T07:45:00.315Z,973.6
2023-05-13T07:46:00.371Z,973.2
2023-05-13T07:47:00.342Z,973.2
2023-05-13T07:48:00.377Z,973.6
2023-05-13T07:49:00.377Z,973.6
2023-05-13T07:50:00.345Z,973.6
2023-05-13T07:51:00.336Z,973.6
2023-05-13T07:52:00.688Z,973.4
2023-05-13T07:53:00.461Z,973.4
2023-05-13T07:54:00.356Z,973.2
2023-05-13T07:55:00.440Z,973.2
2023-05-13T07:56:00.338Z,973.2
2023-05-13T07:57:00.323Z,973.2
2023-05-13T07:58:00.368Z,972.7
2023-05-13T07:59:00.332Z,972.3
2023-05-13T08:00:00.358Z,972.3
2023-05-13T08:01:00.391Z,972.3
2023-05-13T08:02:00.332Z,972.3
2023-05-13T08:03:00.434Z,972.1
2023-05-13T08:04:00.716Z,972.1
2023-05-13T08:05:00.392Z,972.7
2023-05-13T08:06:00.372Z,972.1
2023-05-13T08:07:00.708Z,972.7
2023-05-13T08:08:00.370Z,972.3
2023-05-13T08:09:00.337Z,972.3
2023-05-13T08:10:00.403Z,972.7
2023-05-13T08:11:00.362Z,972.3
2023-05-13T08:12:00.358Z,972.7
2023-05-13T08:13:00.385Z,971.9
2023-05-13T08:14:00.374Z,971.7
2023-05-13T08:15:00.352Z,971.4
2023-05-13T08:16:00.471Z,971.4
2023-05-13T08:17:00.344Z,971.4
2023-05-13T08:18:00.441Z,970.6
2023-05-13T08:19:00.481Z,970.6
2023-05-13T08:20:00.363Z,970.6
2023-05-13T08:21:00.396Z,970.6
2023-05-13T08:22:00.440Z,970.4
2023-05-13T08:23:00.340Z,970.4
2023-05-13T08:24:00.387Z,970.1
2023-05-13T08:25:00.476Z,970.1
2023-05-13T08:26:00.367Z,970.1
2023-05-13T08:27:00.367Z,970.1
2023-05-13T08:28:00.399Z,970.1
2023-05-13T08:29:00.368Z,970.1
2023-05-13T08:30:00.366Z,969.9
2023-05-13T08:31:00.450Z,970.1
2023-05-13T08:32:00.506Z,970.1
2023-05-13T08:33:00.507Z,970.1
2023-05-13T08:34:00.501Z,970.6
2023-05-13T08:35:00.409Z,970.6
2023-05-13T08:36:00.426Z,970.6
2023-05-13T08:37:00.404Z,970.6
2023-05-13T08:38:00.363Z,970.6
2023-05-13T08:39:00.542Z,970.1
2023-05-13T08:40:00.420Z,970.6
2023-05-13T08:41:00.373Z,969.3
2023-05-13T08:42:00.389Z,969.5
2023-05-13T08:43:00.526Z,969.5
2023-05-13T08:44:00.420Z,969.3
2023-05-13T08:45:00.412Z,969
2023-05-13T08:46:00.446Z,968.4
2023-05-13T08:47:00.384Z,968.8
2023-05-13T08:48:00.478Z,968
2023-05-13T08:49:00.467Z,968.8
2023-05-13T08:50:00.382Z,968.2
2023-05-13T08:51:00.414Z,968.4
2023-05-13T08:52:00.450Z,968.4
2023-05-13T08:53:00.436Z,968.6
2023-05-13T08:54:00.495Z,968.4
2023-05-13T08:55:00.472Z,968.4
2023-05-13T08:56:00.397Z,968.8
2023-05-13T08:57:00.397Z,968.6
2023-05-13T08:58:00.493Z,968.8
2023-05-13T08:59:00.395Z,968.4
2023-05-13T09:00:00.416Z,968
2023-05-13T09:01:00.451Z,968
2023-05-13T09:02:00.394Z,968.6
2023-05-13T09:03:00.453Z,968.6
2023-05-13T09:04:00.450Z,968.4
2023-05-13T09:05:00.538Z,967.5
2023-05-13T09:06:00.495Z,967.1
2023-05-13T09:07:00.427Z,966.7
2023-05-13T09:08:00.420Z,967.1
2023-05-13T09:09:00.448Z,966.7
2023-05-13T09:10:00.425Z,967.1
2023-05-13T09:11:00.402Z,967.7
2023-05-13T09:12:00.429Z,968
2023-05-13T09:13:00.452Z,968.2
2023-05-13T09:14:00.451Z,968.4
2023-05-13T09:15:00.396Z,967.5
2023-05-13T09:16:00.472Z,967.5
2023-05-13T09:17:00.464Z,967.5
2023-05-13T09:18:00.478Z,967.5
2023-05-13T09:19:00.701Z,967.7
2023-05-13T09:20:00.540Z,966.7
2023-05-13T09:21:00.409Z,967.3
2023-05-13T09:22:00.456Z,968
2023-05-13T09:23:00.474Z,967.1
2023-05-13T09:24:00.426Z,967.1
2023-05-13T09:25:00.472Z,967.5
2023-05-13T09:26:00.503Z,967.1
2023-05-13T09:27:00.407Z,967.3
2023-05-13T09:28:00.481Z,967.5
2023-05-13T09:29:00.418Z,968
2023-05-13T09:30:00.429Z,966.7
2023-05-13T09:31:00.512Z,967.5
2023-05-13T09:32:00.433Z,967.7
2023-05-13T09:33:00.505Z,967.3
2023-05-13T09:34:00.476Z,967.1
2023-05-13T09:35:00.419Z,967.7
2023-05-13T09:36:00.425Z,966.9
2023-05-13T09:37:00.524Z,966.7
2023-05-13T09:38:00.428Z,966.7
2023-05-13T09:39:00.428Z,967.3
2023-05-13T09:40:00.716Z,967.3
2023-05-13T09:41:00.454Z,967.1
2023-05-13T09:42:01.286Z,967.5
2023-05-13T09:43:00.543Z,967.5
2023-05-13T09:44:00.578Z,966.2
2023-05-13T09:45:00.440Z,967.1
2023-05-13T09:46:00.493Z,968
2023-05-13T09:47:00.461Z,968
2023-05-13T09:48:00.437Z,968
2023-05-13T09:49:00.492Z,967.5
2023-05-13T09:50:00.473Z,967.5
2023-05-13T09:51:00.500Z,968
2023-05-13T09:52:00.600Z,967.5
2023-05-13T09:53:00.474Z,967.1
2023-05-13T09:54:00.509Z,968
2023-05-13T09:55:00.578Z,968
2023-05-13T09:56:00.490Z,968
2023-05-13T09:57:00.458Z,968
2023-05-13T09:58:02.018Z,968.2
2023-05-13T09:59:00.503Z,968.4
2023-05-13T10:00:00.598Z,968
2023-05-13T10:01:00.695Z,968.4
2023-05-13T10:02:00.809Z,968.6
2023-05-13T10:03:00.534Z,968.6
2023-05-13T10:04:00.690Z,968.4
2023-05-13T10:05:00.596Z,968.8
2023-05-13T10:06:03.081Z,968.6
2023-05-13T10:07:00.600Z,968
2023-05-13T10:08:00.492Z,968
2023-05-13T10:09:00.522Z,968
2023-05-13T10:10:00.818Z,967.7
2023-05-13T10:11:00.504Z,968
2023-05-13T10:12:00.505Z,967.7
2023-05-13T10:13:00.647Z,967.1
2023-05-13T10:14:00.496Z,967.5
2023-05-13T10:15:00.587Z,968
2023-05-13T10:16:00.730Z,967.7
2023-05-13T10:17:00.584Z,967.3
2023-05-13T10:18:00.569Z,967.7
2023-05-13T10:19:00.684Z,968.2
2023-05-13T10:20:00.678Z,968
2023-05-13T10:21:00.546Z,968.2
2023-05-13T10:22:00.734Z,968.2
2023-05-13T10:23:00.617Z,968.4
2023-05-13T10:24:00.591Z,968.4
2023-05-13T10:25:01.024Z,968
2023-05-13T10:26:00.600Z,966.9
2023-05-13T10:27:00.817Z,967.5
2023-05-13T10:28:00.946Z,967.7
2023-05-13T10:29:00.601Z,968.2
2023-05-13T10:30:03.196Z,968
2023-05-13T10:31:01.116Z,968
2023-05-13T10:32:00.655Z,968
2023-05-13T10:33:00.625Z,968
2023-05-13T10:34:01.986Z,968
2023-05-13T10:35:00.988Z,967.7
2023-05-13T10:36:00.775Z,968
2023-05-13T10:37:00.868Z,966.9
2023-05-13T10:38:00.574Z,967.1
2023-05-13T10:39:00.823Z,968
2023-05-13T10:40:01.099Z,968.2
2023-05-13T10:41:00.583Z,968
2023-05-13T10:42:00.582Z,968
2023-05-13T10:43:01.059Z,968
2023-05-13T10:44:00.679Z,968
2023-05-13T10:45:00.852Z,968
2023-05-13T10:46:00.892Z,968.2
2023-05-13T10:47:00.523Z,968.2
2023-05-13T10:48:00.639Z,968.4
2023-05-13T10:49:00.927Z,968.4
2023-05-13T10:50:00.576Z,968.4
2023-05-13T10:51:00.498Z,968.4
2023-05-13T10:52:01.190Z,968.8
2023-05-13T10:53:00.504Z,968.4
2023-05-13T10:54:00.518Z,968.8
2023-05-13T10:55:00.633Z,968.8
2023-05-13T10:56:00.550Z,968.6
2023-05-13T10:57:00.549Z,968.8
2023-05-13T10:58:00.550Z,969.3
2023-05-13T10:59:00.535Z,968.8
2023-05-13T11:00:00.592Z,969
2023-05-13T11:01:00.593Z,969
2023-05-13T11:02:00.640Z,969.3
2023-05-13T11:03:00.651Z,969.5
2023-05-13T11:04:00.788Z,969.5
2023-05-13T11:05:00.889Z,969.5
2023-05-13T11:06:00.522Z,969.7
2023-05-13T11:07:00.569Z,969.3
2023-05-13T11:08:00.524Z,969.3
2023-05-13T11:09:00.523Z,969.3
2023-05-13T11:10:02.472Z,969.5
2023-05-13T11:11:00.521Z,969.7
2023-05-13T11:12:00.547Z,969.3
2023-05-13T11:13:00.593Z,969.3
2023-05-13T11:14:00.605Z,969.5
2023-05-13T11:15:00.583Z,969.3
2023-05-13T11:16:00.592Z,969.7
2023-05-13T11:17:00.549Z,969.5
2023-05-13T11:18:00.875Z,969.7
2023-05-13T11:19:00.634Z,969.7
2023-05-13T11:20:00.604Z,969.7
2023-05-13T11:21:00.579Z,969.5
2023-05-13T11:22:00.577Z,969.3
2023-05-13T11:23:00.565Z,969.3
2023-05-13T11:24:00.542Z,969.3
2023-05-13T11:25:00.603Z,969.3
2023-05-13T11:26:00.556Z,969
2023-05-13T11:27:00.550Z,968.8
2023-05-13T11:28:00.565Z,968.8
2023-05-13T11:29:00.521Z,968.8
2023-05-13T11:30:00.534Z,968.4
2023-05-13T11:31:00.540Z,968.4
2023-05-13T11:32:01.071Z,968.6
2023-05-13T11:33:00.577Z,968.6
2023-05-13T11:34:00.552Z,968.4
2023-05-13T11:35:00.587Z,968.4
2023-05-13T11:36:00.540Z,967.5
2023-05-13T11:37:00.519Z,968
2023-05-13T11:38:00.730Z,968.2
2023-05-13T11:39:00.542Z,968
2023-05-13T11:40:00.548Z,968.6
2023-05-13T11:41:00.544Z,968
2023-05-13T11:42:00.535Z,968
2023-05-13T11:43:00.556Z,968.2
2023-05-13T11:44:00.556Z,968
2023-05-13T11:45:00.533Z,968.4
2023-05-13T11:46:00.556Z,968.8
2023-05-13T11:47:00.568Z,968.8
2023-05-13T11:48:00.550Z,968.4
2023-05-13T11:49:00.542Z,968
2023-05-13T11:50:00.543Z,967.5
2023-05-13T11:51:00.544Z,968
2023-05-13T11:52:00.539Z,968
2023-05-13T11:53:00.567Z,968.4
2023-05-13T11:54:00.542Z,968.6
2023-05-13T11:55:00.544Z,968.4
2023-05-13T11:56:00.557Z,968.6
2023-05-13T11:57:00.554Z,967.5
2023-05-13T11:58:00.875Z,967.1
2023-05-13T11:59:00.549Z,967.5
2023-05-13T12:00:00.575Z,968
2023-05-13T12:01:00.573Z,967.5
2023-05-13T12:02:00.598Z,968
2023-05-13T12:03:00.889Z,967.7
2023-05-13T12:04:00.591Z,967.3
2023-05-13T12:05:00.604Z,967.3
2023-05-13T12:06:00.570Z,967.1
2023-05-13T12:07:00.574Z,967.5
2023-05-13T12:08:00.590Z,967.3
2023-05-13T12:09:00.623Z,967.1
2023-05-13T12:10:00.579Z,966.7
2023-05-13T12:11:00.577Z,966.2
2023-05-13T12:12:00.576Z,966.2
2023-05-13T12:13:00.569Z,967.1
2023-05-13T12:14:00.564Z,967.3
2023-05-13T12:15:00.625Z,967.5
2023-05-13T12:16:00.649Z,967.5
2023-05-13T12:17:00.568Z,967.7
2023-05-13T12:18:00.624Z,967.5
2023-05-13T12:19:00.593Z,968
2023-05-13T12:20:00.577Z,968
2023-05-13T12:21:00.579Z,968.4
2023-05-13T12:22:00.570Z,968.8
2023-05-13T12:23:00.594Z,968.4
2023-05-13T12:24:00.575Z,968
2023-05-13T12:25:00.583Z,967.5
2023-05-13T12:26:00.581Z,968.4
2023-05-13T12:27:00.580Z,968
2023-05-13T12:28:00.593Z,968.4
2023-05-13T12:29:00.577Z,967.7
2023-05-13T12:30:00.608Z,967.7
2023-05-13T12:31:00.599Z,968
2023-05-13T12:32:00.604Z,967.5
2023-05-13T12:33:00.620Z,967.5
2023-05-13T12:34:00.628Z,967.5
2023-05-13T12:35:00.596Z,968
2023-05-13T12:36:00.597Z,968
2023-05-13T12:37:00.639Z,968
2023-05-13T12:38:00.596Z,968.4
2023-05-13T12:39:01.095Z,968.6
2023-05-13T12:40:00.624Z,969
2023-05-13T12:41:00.597Z,968.8
2023-05-13T12:42:00.591Z,969.3
2023-05-13T12:43:00.606Z,969
2023-05-13T12:44:00.610Z,969.3
2023-05-13T12:45:00.607Z,969.3
2023-05-13T12:46:00.595Z,968.8
2023-05-13T12:47:00.628Z,969.3
2023-05-13T12:48:00.726Z,969.7
2023-05-13T12:49:00.610Z,969.3
2023-05-13T12:52:00.724Z,969.5
2023-05-13T12:53:00.759Z,969.3
2023-05-13T12:54:00.731Z,969.3
2023-05-13T12:55:00.723Z,969.3
2023-05-13T12:56:00.726Z,969.5
2023-05-13T12:57:00.754Z,969.7
2023-05-13T12:58:00.750Z,969.5
2023-05-13T12:59:00.732Z,969.3
2023-05-13T13:00:00.747Z,969.3
2023-05-13T13:01:00.787Z,968.8